< < Back
Terminal Aerodrome Forecast


Current Version              Previous Versions:   1  2  3  4  5  6  7  8  9  

Terminal Aerodrome Forecast

120
FTUS42 KILM 250500
TAFILM
TAF
KILM 250520Z 2506/2606 VRB04KT P6SM VCSH SCT050 BKN080
     FM251300 34005KT P6SM SCT050 SCT100
     FM251800 15006KT P6SM VCTS BKN050CB
     FM260000 VRB02KT P6SM SCT040 SCT100=

Latest METAR

997
SAUS70 KWBC 250600 RRF
MTRILM
METAR KILM 250553Z AUTO 00000KT 10SM BKN026 OVC090 23/22 A2996 RMK AO2
RAB22E40 SLP143 P0000 60086 T02330217 10250 20228 51019 $


USA.gov is the U.S. government's official web portal to all federal, state and local government web resources and services.